Time;durP1;ratioP1;P1;durP2;ratioP2;P2;SDS_P1;SDS_P2;PMS_P1;PMS_P2;Temp;Humidity;BMP_temperature;BMP_pressure;BME280_temperature;BME280_humidity;BME280_pressure;Samples;Min_cycle;Max_cycle;Signal;HPM_P1;HPM_P2
2023/06/27 00:01:04;;;;;;;;;14.00;13.00;;;;;24.27;64.71;98202.03;6066186;28;96405;-64
2023/06/27 00:04:07;;;;;;;;;14.00;13.00;;;;;24.28;63.17;98219.38;6065121;28;97634;-65
2023/06/27 00:07:11;;;;;;;;;11.20;10.80;;;;;24.29;63.58;98223.75;6049423;28;98589;-65
2023/06/27 00:10:15;;;;;;;;;13.60;12.00;;;;;24.28;63.73;98305.59;6048466;28;98966;-65
2023/06/27 00:13:18;;;;;;;;;16.00;16.00;;;;;24.33;63.07;98310.94;6048837;28;96847;-65
2023/06/27 00:16:24;;;;;;;;;14.00;13.00;;;;;24.37;61.69;98300.88;6049138;28;98407;-65
2023/06/27 00:19:30;;;;;;;;;12.00;11.00;;;;;24.29;63.06;98304.41;6065061;28;96521;-65
2023/06/27 00:22:34;;;;;;;;;13.80;12.20;;;;;24.38;70.57;98318.22;6066415;28;96866;-65
2023/06/27 00:25:38;;;;;;;;;13.00;12.00;;;;;24.39;73.62;98317.06;6065557;28;96534;-64
2023/06/27 00:28:41;;;;;;;;;12.40;11.40;;;;;24.37;75.13;98328.41;6048279;28;96987;-65
2023/06/27 00:31:47;;;;;;;;;13.60;12.00;;;;;24.34;78.67;98311.72;6065969;28;96582;-65
2023/06/27 00:34:50;;;;;;;;;14.60;13.60;;;;;24.33;79.75;98330.22;6053045;28;97887;-65
2023/06/27 00:37:54;;;;;;;;;11.00;11.00;;;;;24.31;80.22;98324.19;6069989;28;96395;-65
2023/06/27 00:40:57;;;;;;;;;11.60;10.20;;;;;24.26;82.18;98327.13;6051985;28;97115;-65
2023/06/27 00:44:02;;;;;;;;;12.40;11.40;;;;;24.24;84.05;98336.84;6068362;28;97074;-65
2023/06/27 00:47:07;;;;;;;;;12.00;12.00;;;;;24.24;84.42;98345.91;6052073;28;96646;-65
2023/06/27 00:50:12;;;;;;;;;13.00;11.80;;;;;24.22;85.89;98355.63;6069999;28;96442;-65
2023/06/27 00:53:15;;;;;;;;;13.00;12.00;;;;;24.24;88.39;98364.41;6069578;28;96750;-65
2023/06/27 00:56:19;;;;;;;;;10.60;9.60;;;;;24.10;91.00;98365.31;6069242;28;96718;-64
2023/06/27 00:59:23;;;;;;;;;12.00;12.00;;;;;23.91;96.08;98370.31;6069302;28;96563;-65
2023/06/27 01:02:28;;;;;;;;;13.00;11.60;;;;;23.72;100.00;98378.84;6068099;28;96282;-65
2023/06/27 01:05:32;;;;;;;;;9.20;9.20;;;;;23.58;100.00;98371.84;6069119;28;96839;-64
2023/06/27 01:08:42;;;;;;;;;12.00;11.00;;;;;23.42;100.00;98367.88;6067495;28;98596;-65
2023/06/27 01:11:51;;;;;;;;;11.50;11.00;;;;;23.27;100.00;98369.09;6069121;28;96346;-64
2023/06/27 01:14:58;;;;;;;;;15.00;14.00;;;;;23.10;100.00;98355.28;6068218;28;96299;-65
2023/06/27 01:18:04;;;;;;;;;11.80;11.80;;;;;23.02;100.00;98362.34;6068413;28;96422;-65
2023/06/27 01:21:08;;;;;;;;;10.00;9.00;;;;;22.91;100.00;98361.00;6069412;28;96565;-65
2023/06/27 01:24:13;;;;;;;;;13.25;12.00;;;;;22.67;100.00;98341.28;6051402;28;98583;-65
2023/06/27 01:27:17;;;;;;;;;13.60;12.60;;;;;22.66;100.00;98356.13;6067630;28;96462;-65
2023/06/27 01:30:20;;;;;;;;;14.00;13.00;;;;;22.62;100.00;98366.94;6051486;28;96709;-65
2023/06/27 01:33:30;;;;;;;;;12.40;10.80;;;;;22.48;100.00;98364.22;6067661;28;96688;-65
2023/06/27 01:36:41;;;;;;;;;13.00;11.00;;;;;22.42;100.00;98372.94;6067251;28;96596;-65
2023/06/27 01:39:51;;;;;;;;;13.00;11.00;;;;;22.37;100.00;98362.06;6068870;28;97030;-64
2023/06/27 01:42:57;;;;;;;;;13.00;13.00;;;;;22.35;100.00;98376.09;6067795;28;96418;-65
2023/06/27 01:46:03;;;;;;;;;12.25;12.25;;;;;22.18;100.00;98386.13;6067731;28;96341;-65
2023/06/27 01:49:09;;;;;;;;;14.40;13.40;;;;;22.04;100.00;98394.38;6067700;28;96978;-65
2023/06/27 01:52:13;;;;;;;;;13.00;11.50;;;;;21.99;100.00;98392.56;6068700;28;96431;-65
2023/06/27 01:55:18;;;;;;;;;13.60;12.60;;;;;22.03;100.00;98392.78;6066291;28;96565;-65
2023/06/27 01:58:23;;;;;;;;;13.40;12.00;;;;;22.00;100.00;98398.88;6050805;28;96670;-65
2023/06/27 02:01:26;;;;;;;;;15.00;14.00;;;;;21.81;100.00;98422.84;6051640;28;98452;-64
2023/06/27 02:04:30;;;;;;;;;13.00;12.40;;;;;21.83;100.00;98413.22;6050278;28;99313;-65
2023/06/27 02:07:33;;;;;;;;;15.00;15.00;;;;;21.81;100.00;98422.84;6051017;28;96727;-65
2023/06/27 02:10:38;;;;;;;;;13.00;12.00;;;;;21.73;100.00;98405.19;6067196;28;97015;-65
2023/06/27 02:13:45;;;;;;;;;13.00;11.60;;;;;21.68;100.00;98390.75;6081231;28;96313;-65
2023/06/27 02:16:48;;;;;;;;;14.50;14.50;;;;;21.55;100.00;98381.41;6074441;28;96985;-65
2023/06/27 02:19:53;;;;;;;;;12.40;12.00;;;;;21.60;100.00;98384.03;6092156;28;96229;-65
2023/06/27 02:22:57;;;;;;;;;13.50;12.00;;;;;21.54;100.00;98385.28;6058324;28;98441;-65
2023/06/27 02:26:03;;;;;;;;;13.33;11.33;;;;;21.40;100.00;98359.78;6058618;28;96702;-65
2023/06/27 02:29:06;;;;;;;;;14.20;13.00;;;;;21.43;100.00;98353.69;6091908;28;96449;-65
2023/06/27 02:32:12;;;;;;;;;12.00;11.00;;;;;21.40;100.00;98368.00;6092009;28;96317;-65
2023/06/27 02:35:16;;;;;;;;;12.00;11.00;;;;;21.30;100.00;98358.06;6074020;28;96768;-64
2023/06/27 02:38:19;;;;;;;;;13.60;12.60;;;;;21.32;100.00;98346.75;6091373;28;96618;-65
2023/06/27 02:41:24;;;;;;;;;11.60;10.60;;;;;21.30;100.00;98352.56;6097964;28;96215;-64
2023/06/27 02:44:27;;;;;;;;;11.40;11.00;;;;;21.27;100.00;98338.63;6109237;28;96411;-64
2023/06/27 02:47:31;;;;;;;;;12.60;11.20;;;;;21.24;100.00;98328.28;6054787;28;97980;-64
2023/06/27 02:50:34;;;;;;;;;10.80;9.20;;;;;21.18;100.00;98341.28;6095343;28;96334;-65
2023/06/27 02:53:37;;;;;;;;;13.00;12.60;;;;;21.16;100.00;98338.84;6095942;28;97680;-64
2023/06/27 02:56:42;;;;;;;;;12.50;11.50;;;;;21.20;100.00;98341.00;6112456;28;96533;-65
2023/06/27 02:59:46;;;;;;;;;12.00;11.00;;;;;21.22;100.00;98323.09;6096978;28;96698;-64
2023/06/27 03:02:51;;;;;;;;;12.00;12.00;;;;;21.21;100.00;98324.22;6080596;28;98448;-64
2023/06/27 03:05:55;;;;;;;;;11.40;11.00;;;;;21.15;100.00;98328.19;6081391;28;98669;-64
2023/06/27 03:08:59;;;;;;;;;11.00;10.00;;;;;21.11;100.00;98338.13;6112294;28;96653;-65
2023/06/27 03:12:04;;;;;;;;;13.60;13.00;;;;;21.17;100.00;98336.91;6095874;28;96833;-64
2023/06/27 03:15:09;;;;;;;;;14.00;12.00;;;;;21.18;100.00;98342.09;6081080;28;97329;-65
2023/06/27 03:18:13;;;;;;;;;10.40;10.00;;;;;21.15;100.00;98334.50;6095957;28;97250;-65
2023/06/27 03:21:17;;;;;;;;;10.60;10.60;;;;;21.21;100.00;98345.38;6096972;28;96683;-65
2023/06/27 03:24:20;;;;;;;;;12.00;12.00;;;;;21.30;100.00;98340.78;6080971;28;96310;-65
2023/06/27 03:27:26;;;;;;;;;11.60;11.00;;;;;21.36;100.00;98348.59;6079193;28;96926;-64
2023/06/27 03:30:30;;;;;;;;;11.75;10.00;;;;;21.41;100.00;98347.69;6095593;28;96749;-64
2023/06/27 03:33:34;;;;;;;;;10.00;9.00;;;;;21.45;100.00;98349.50;6078557;28;98551;-64
2023/06/27 03:36:39;;;;;;;;;13.00;11.40;;;;;21.50;100.00;98354.88;6094502;28;97095;-64
2023/06/27 03:39:42;;;;;;;;;10.20;9.20;;;;;21.55;100.00;98357.53;6111161;28;96489;-64
2023/06/27 03:42:47;;;;;;;;;10.60;10.00;;;;;21.58;100.00;98359.66;6113358;28;96840;-64
2023/06/27 03:45:51;;;;;;;;;12.00;10.40;;;;;21.65;100.00;98359.25;6097245;28;96518;-64
2023/06/27 03:48:58;;;;;;;;;9.50;9.00;;;;;21.78;100.00;98363.09;6113222;28;96361;-65
2023/06/27 03:52:01;;;;;;;;;9.00;9.00;;;;;21.91;100.00;98370.50;6096442;28;98485;-64
2023/06/27 03:55:06;;;;;;;;;8.50;8.50;;;;;22.03;100.00;98366.13;6113176;28;96381;-65
2023/06/27 03:58:11;;;;;;;;;10.40;10.00;;;;;22.09;100.00;98369.56;6095925;28;96928;-65
2023/06/27 04:01:14;;;;;;;;;13.00;11.40;;;;;22.16;100.00;98375.44;6095432;28;96919;-65
2023/06/27 04:04:18;;;;;;;;;11.80;11.80;;;;;22.18;100.00;98378.72;6064544;28;96753;-65
2023/06/27 04:07:21;;;;;;;;;14.40;13.00;;;;;22.27;100.00;98376.03;6066301;28;96384;-65
2023/06/27 04:10:24;;;;;;;;;12.00;11.00;;;;;22.23;100.00;98369.53;6076553;28;96595;-65
2023/06/27 04:13:29;;;;;;;;;10.60;9.60;;;;;22.20;100.00;98364.66;6108975;28;97248;-65
2023/06/27 04:16:33;;;;;;;;;10.00;10.00;;;;;22.24;100.00;98363.72;6079210;28;97832;-64
2023/06/27 04:19:36;;;;;;;;;11.25;11.25;;;;;22.21;100.00;98367.09;6092998;28;96335;-65
2023/06/27 04:22:40;;;;;;;;;11.50;11.50;;;;;22.23;100.00;98356.63;6092605;28;96592;-65
2023/06/27 04:25:45;;;;;;;;;12.00;11.50;;;;;22.29;100.00;98354.53;6076490;28;96341;-65
2023/06/27 04:28:51;;;;;;;;;9.00;8.20;;;;;22.23;100.00;98356.63;6093155;28;96493;-65
2023/06/27 04:31:55;;;;;;;;;10.60;10.40;;;;;22.20;100.00;98354.47;6093056;28;97175;-64
2023/06/27 04:34:58;;;;;;;;;10.50;9.25;;;;;22.21;100.00;98352.56;6095627;28;97295;-65
2023/06/27 04:38:04;;;;;;;;;11.00;10.50;;;;;22.04;100.00;98326.56;6101693;28;96610;-64
2023/06/27 04:41:08;;;;;;;;;11.00;9.00;;;;;22.32;100.00;98348.44;6075295;28;96717;-65
2023/06/27 04:44:13;;;;;;;;;11.00;10.20;;;;;22.39;100.00;98346.88;6068092;28;96558;-65
2023/06/27 04:47:17;;;;;;;;;12.00;11.00;;;;;22.37;100.00;98342.84;6052161;28;98389;-65
2023/06/27 04:50:20;;;;;;;;;10.00;9.20;;;;;22.46;100.00;98343.72;6051681;28;98994;-65
2023/06/27 04:53:24;;;;;;;;;11.60;9.40;;;;;22.50;100.00;98332.91;6068649;28;96463;-65
2023/06/27 04:56:27;;;;;;;;;11.00;10.00;;;;;22.64;100.00;98342.69;6051564;28;99061;-65
2023/06/27 04:59:32;;;;;;;;;13.00;11.20;;;;;22.71;100.00;98347.78;6069668;28;96324;-65
2023/06/27 05:02:35;;;;;;;;;11.40;11.00;;;;;22.73;100.00;98351.84;6069356;28;96496;-65
2023/06/27 05:05:51;;;;;;;;;10.20;9.20;;;;;22.88;100.00;98350.63;6051162;28;98828;-65
2023/06/27 05:08:55;;;;;;;;;11.00;10.00;;;;;23.05;100.00;98349.91;6068842;28;97179;-65
2023/06/27 05:11:58;;;;;;;;;11.00;11.00;;;;;23.06;100.00;98348.81;6051298;28;98497;-65
2023/06/27 05:15:04;;;;;;;;;11.50;11.00;;;;;23.02;100.00;98343.09;6068701;28;96529;-65
2023/06/27 05:18:23;;;;;;;;;11.40;10.00;;;;;22.97;100.00;98345.19;6067081;28;96720;-65
2023/06/27 05:21:29;;;;;;;;;11.00;11.00;;;;;22.93;100.00;98350.50;6068683;28;96525;-64
2023/06/27 05:24:33;;;;;;;;;11.00;10.00;;;;;22.94;100.00;98352.13;6067462;28;96406;-65
2023/06/27 05:27:37;;;;;;;;;11.60;10.20;;;;;22.88;100.00;98356.13;6049492;28;98455;-64
2023/06/27 05:30:41;;;;;;;;;9.40;8.40;;;;;22.85;100.00;98349.34;6064684;28;96763;-64
2023/06/27 05:33:46;;;;;;;;;10.00;8.20;;;;;22.82;100.00;98376.66;6048762;28;96708;-64
2023/06/27 05:36:49;;;;;;;;;10.00;9.00;;;;;22.87;100.00;98363.56;6048868;28;99829;-64
2023/06/27 05:39:52;;;;;;;;;10.00;8.80;;;;;22.87;100.00;98351.78;6066109;28;96526;-65
2023/06/27 05:42:56;;;;;;;;;10.80;9.00;;;;;23.02;100.00;98356.06;6068056;28;97104;-65
2023/06/27 05:46:01;;;;;;;;;12.00;10.00;;;;;23.00;100.00;98356.38;6068314;28;96507;-65
2023/06/27 05:49:04;;;;;;;;;11.00;10.00;;;;;22.90;100.00;98345.63;6069057;28;96329;-64
2023/06/27 05:52:08;;;;;;;;;11.25;11.00;;;;;23.10;100.00;98364.34;6051482;28;96683;-65
2023/06/27 05:55:11;;;;;;;;;11.00;11.00;;;;;23.08;100.00;98371.28;6067949;28;96332;-65
2023/06/27 05:58:15;;;;;;;;;10.00;9.80;;;;;23.02;100.00;98373.34;6067114;28;96465;-65
2023/06/27 06:01:20;;;;;;;;;12.00;10.50;;;;;23.00;100.00;98377.53;6068160;28;96471;-65
2023/06/27 06:04:23;;;;;;;;;10.00;9.60;;;;;22.99;100.00;98375.91;6066867;28;96851;-65
2023/06/27 06:07:26;;;;;;;;;11.40;11.40;;;;;22.97;100.00;98387.22;6068406;28;96409;-64
2023/06/27 06:10:30;;;;;;;;;12.50;12.00;;;;;23.04;100.00;98386.78;6066800;28;96525;-64
2023/06/27 06:13:33;;;;;;;;;11.00;10.60;;;;;23.14;100.00;98392.84;6050316;28;97281;-64
2023/06/27 06:16:38;;;;;;;;;9.25;7.75;;;;;23.03;100.00;98396.97;6066885;28;97715;-65
2023/06/27 06:19:42;;;;;;;;;7.00;6.00;;;;;22.85;100.00;98409.00;6054050;28;96701;-65
2023/06/27 06:22:45;;;;;;;;;8.20;8.00;;;;;22.85;100.00;98412.56;6077345;28;96915;-64
2023/06/27 06:25:48;;;;;;;;;8.40;8.40;;;;;22.88;100.00;98413.84;6078778;28;96503;-64
2023/06/27 06:28:52;;;;;;;;;9.40;9.00;;;;;22.94;100.00;98417.28;6069138;28;96772;-64
2023/06/27 06:31:57;;;;;;;;;10.20;8.60;;;;;23.01;100.00;98417.66;6076728;28;96401;-65
2023/06/27 06:35:01;;;;;;;;;9.00;8.00;;;;;23.07;100.00;98419.13;6066994;28;96963;-64
2023/06/27 06:38:04;;;;;;;;;7.00;7.00;;;;;23.14;100.00;98420.34;6041522;28;96689;-64
2023/06/27 06:41:12;;;;;;;;;9.25;7.25;;;;;23.12;100.00;98419.81;6067116;28;96496;-64
2023/06/27 06:44:15;;;;;;;;;6.25;6.25;;;;;23.16;100.00;98417.28;6074831;28;96327;-65
2023/06/27 06:47:20;;;;;;;;;7.00;6.60;;;;;23.10;100.00;98430.34;6067609;28;99180;-64
2023/06/27 06:50:23;;;;;;;;;7.00;6.00;;;;;23.11;100.00;98442.16;6069702;28;96930;-65
2023/06/27 06:53:26;;;;;;;;;5.00;4.00;;;;;23.11;100.00;98448.47;6078119;28;96786;-64
2023/06/27 06:56:30;;;;;;;;;6.00;6.00;;;;;23.06;100.00;98443.09;6078316;28;96466;-64
2023/06/27 06:59:33;;;;;;;;;8.00;8.00;;;;;23.08;100.00;98454.56;6073893;28;97062;-64
2023/06/27 07:02:38;;;;;;;;;5.00;4.00;;;;;22.98;100.00;98467.75;6073970;28;97009;-64
2023/06/27 07:05:42;;;;;;;;;6.25;6.00;;;;;23.08;100.00;98464.75;6074294;28;96823;-64
2023/06/27 07:08:45;;;;;;;;;8.00;7.00;;;;;23.16;100.00;98469.53;6065763;28;96367;-64
2023/06/27 07:11:50;;;;;;;;;6.00;6.00;;;;;23.17;100.00;98465.63;6073260;28;96877;-64
2023/06/27 07:14:53;;;;;;;;;7.00;6.00;;;;;23.28;100.00;98467.81;6079455;28;96793;-64
2023/06/27 07:17:59;;;;;;;;;7.00;6.40;;;;;23.31;100.00;98460.88;6077259;28;96695;-64
2023/06/27 07:21:02;;;;;;;;;9.00;7.00;;;;;23.39;100.00;98470.28;6088290;28;96447;-64
2023/06/27 07:24:06;;;;;;;;;8.00;7.00;;;;;23.45;100.00;98472.63;6073243;28;98753;-64
2023/06/27 07:27:10;;;;;;;;;7.00;7.00;;;;;23.43;100.00;98457.53;6048673;28;96903;-64
2023/06/27 07:30:14;;;;;;;;;6.00;6.00;;;;;23.72;100.00;98477.13;6062679;28;97198;-64
2023/06/27 07:33:20;;;;;;;;;7.00;6.60;;;;;23.83;100.00;98481.22;6064385;28;96490;-64
2023/06/27 07:36:24;;;;;;;;;7.40;7.00;;;;;24.00;100.00;98481.28;6046636;28;97205;-64
2023/06/27 07:39:27;;;;;;;;;8.00;7.00;;;;;24.08;100.00;98474.19;6065016;28;96543;-64
2023/06/27 07:42:30;;;;;;;;;7.00;6.00;;;;;24.14;100.00;98479.22;6063224;28;96927;-64
2023/06/27 07:45:35;;;;;;;;;7.00;7.00;;;;;24.23;100.00;98470.19;6064060;28;96523;-63
2023/06/27 07:48:40;;;;;;;;;7.40;6.40;;;;;24.14;100.00;98473.69;6063181;28;96576;-64
2023/06/27 07:51:45;;;;;;;;;8.60;7.00;;;;;24.09;100.00;98475.81;6046321;28;98556;-64
2023/06/27 07:54:49;;;;;;;;;8.00;7.75;;;;;24.13;100.00;98474.03;6063516;28;96980;-64
2023/06/27 07:57:53;;;;;;;;;10.00;8.00;;;;;24.16;100.00;98471.47;6064560;28;96403;-64
2023/06/27 08:00:56;;;;;;;;;8.00;7.40;;;;;24.38;100.00;98469.75;6065414;28;96869;-64
2023/06/27 08:04:01;;;;;;;;;6.40;6.40;;;;;24.49;100.00;98473.78;6064760;28;96917;-64
2023/06/27 08:07:05;;;;;;;;;8.60;8.00;;;;;24.62;100.00;98470.09;6066231;28;96995;-64
2023/06/27 08:10:09;;;;;;;;;9.00;7.00;;;;;24.71;100.00;98473.66;6066103;28;96383;-64
2023/06/27 08:13:12;;;;;;;;;8.00;8.00;;;;;24.65;100.00;98474.94;6065024;28;96449;-64
2023/06/27 08:16:16;;;;;;;;;8.00;7.00;;;;;24.61;100.00;98473.97;6086151;28;96709;-64
2023/06/27 08:19:20;;;;;;;;;9.20;8.00;;;;;24.73;100.00;98465.06;6089881;28;96395;-64
2023/06/27 08:22:24;;;;;;;;;9.00;8.60;;;;;24.86;100.00;98467.66;6090031;28;96458;-64
2023/06/27 08:25:27;;;;;;;;;10.60;10.00;;;;;24.80;100.00;98466.19;6072255;28;96723;-64
2023/06/27 08:28:31;;;;;;;;;8.80;8.00;;;;;24.77;100.00;98457.78;6081159;28;97113;-64
2023/06/27 08:31:34;;;;;;;;;10.00;10.00;;;;;24.68;100.00;98470.75;6077067;28;96765;-64
2023/06/27 08:34:41;;;;;;;;;10.00;10.00;;;;;24.71;100.00;98483.88;6077683;28;96997;-63
2023/06/27 08:37:45;;;;;;;;;11.00;10.00;;;;;24.63;100.00;98482.72;6076424;28;97373;-64
2023/06/27 08:40:54;;;;;;;;;9.00;9.00;;;;;24.56;100.00;98485.16;6050251;28;99223;-64
2023/06/27 08:43:57;;;;;;;;;8.00;8.00;;;;;24.50;100.00;98489.19;6065724;28;97601;-64
2023/06/27 08:47:04;;;;;;;;;8.60;7.60;;;;;24.66;100.00;98487.59;6048906;28;96529;-64
2023/06/27 08:50:13;;;;;;;;;9.80;9.00;;;;;24.78;100.00;98473.16;6048773;28;96357;-64
2023/06/27 08:53:17;;;;;;;;;8.00;8.00;;;;;24.88;100.00;98489.41;6054389;28;96981;-64
2023/06/27 08:56:22;;;;;;;;;9.00;9.00;;;;;25.06;97.89;98480.00;6071421;28;97231;-64
2023/06/27 08:59:31;;;;;;;;;10.00;9.25;;;;;25.19;94.92;98476.25;6067605;28;97162;-64
2023/06/27 09:02:35;;;;;;;;;8.60;8.20;;;;;25.39;91.27;98485.78;6066904;28;97478;-64
2023/06/27 09:05:41;;;;;;;;;11.00;10.00;;;;;25.61;89.05;98493.84;6066741;28;96336;-64
2023/06/27 09:08:46;;;;;;;;;11.00;10.60;;;;;25.67;90.29;98489.78;6066605;28;96823;-64
2023/06/27 09:11:51;;;;;;;;;10.00;8.00;;;;;25.73;90.27;98487.66;6067223;28;96311;-64
2023/06/27 09:14:55;;;;;;;;;9.25;9.25;;;;;25.76;89.46;98489.75;6066221;28;97495;-64
2023/06/27 09:17:58;;;;;;;;;8.20;7.20;;;;;25.89;88.64;98488.75;6049405;28;96720;-64
2023/06/27 09:21:04;;;;;;;;;9.00;8.00;;;;;25.95;88.07;98492.13;6049142;28;96759;-64
2023/06/27 09:24:08;;;;;;;;;9.40;9.40;;;;;25.80;88.81;98497.03;6065869;28;96357;-64
2023/06/27 09:27:29;;;;;;;;;10.60;9.00;;;;;25.74;89.71;98498.38;6066129;28;97402;-64
2023/06/27 09:30:33;;;;;;;;;8.60;8.40;;;;;25.65;89.39;98505.06;6047587;28;98698;-64
2023/06/27 09:33:37;;;;;;;;;10.00;10.00;;;;;25.46;90.97;98508.19;6066758;28;96553;-64
2023/06/27 09:36:47;;;;;;;;;8.80;8.80;;;;;25.33;93.25;98507.22;6066620;28;96274;-65
2023/06/27 09:39:53;;;;;;;;;11.00;10.00;;;;;25.32;92.98;98507.53;6067838;28;96855;-65
2023/06/27 09:42:58;;;;;;;;;8.80;8.00;;;;;25.16;94.23;98514.72;6066478;28;96477;-64
2023/06/27 09:46:02;;;;;;;;;11.00;9.20;;;;;25.05;94.41;98514.22;6051485;28;96626;-64
2023/06/27 09:49:06;;;;;;;;;10.50;9.50;;;;;25.03;94.25;98511.78;6068628;28;97494;-64
2023/06/27 09:52:12;;;;;;;;;12.00;11.00;;;;;25.38;94.22;98515.31;6068339;28;96985;-65
2023/06/27 09:55:19;;;;;;;;;9.60;9.40;;;;;25.73;92.51;98518.84;6068277;28;96610;-64
2023/06/27 09:58:27;;;;;;;;;11.60;11.60;;;;;26.00;90.19;98514.03;6051609;28;96426;-65
2023/06/27 10:01:30;;;;;;;;;10.67;9.67;;;;;25.90;87.41;98517.19;6051946;28;96272;-65
2023/06/27 10:04:34;;;;;;;;;11.00;10.00;;;;;26.02;87.04;98520.03;6050677;28;96709;-65
2023/06/27 10:07:45;;;;;;;;;11.50;10.50;;;;;25.96;86.25;98515.81;6068516;28;96522;-64
2023/06/27 10:10:50;;;;;;;;;11.00;10.00;;;;;25.99;84.95;98520.72;6066207;28;97008;-65
2023/06/27 10:13:54;;;;;;;;;13.00;12.00;;;;;26.07;83.54;98517.09;6050442;28;97119;-64
2023/06/27 10:16:58;;;;;;;;;14.00;13.00;;;;;26.05;83.17;98519.34;6050740;28;97017;-65
2023/06/27 10:20:03;;;;;;;;;11.00;11.00;;;;;26.10;83.90;98516.41;6068297;28;96867;-65
2023/06/27 10:23:08;;;;;;;;;13.00;10.20;;;;;26.35;77.30;98521.03;6050836;28;96650;-65
2023/06/27 10:26:12;;;;;;;;;12.00;12.00;;;;;26.64;74.19;98509.94;6068066;28;96322;-65
2023/06/27 10:29:16;;;;;;;;;10.00;9.00;;;;;26.74;73.68;98504.00;6066744;28;96326;-64
2023/06/27 10:32:20;;;;;;;;;10.20;9.80;;;;;26.85;71.22;98514.69;6067597;28;96402;-65
2023/06/27 10:35:26;;;;;;;;;10.00;9.50;;;;;27.04;70.73;98496.47;6050629;28;97821;-65
2023/06/27 10:38:35;;;;;;;;;11.40;11.40;;;;;27.14;69.77;98507.13;6066651;28;96250;-65
2023/06/27 10:41:39;;;;;;;;;11.00;10.00;;;;;27.03;68.74;98502.34;6066048;28;97466;-64
2023/06/27 10:45:10;;;;;;;;;9.40;9.40;;;;;27.35;68.38;98503.53;6067330;28;96332;-64
2023/06/27 10:48:26;;;;;;;;;10.20;9.00;;;;;27.68;66.20;98509.88;6067506;28;96455;-65
2023/06/27 10:51:35;;;;;;;;;11.00;11.00;;;;;27.81;63.15;98511.50;6050276;28;96671;-65
2023/06/27 10:54:41;;;;;;;;;9.00;9.00;;;;;27.89;61.39;98510.63;6048910;28;96583;-64
2023/06/27 10:57:46;;;;;;;;;10.00;9.40;;;;;27.88;59.06;98514.53;6084486;28;96915;-64
2023/06/27 11:00:51;;;;;;;;;10.00;9.00;;;;;27.88;59.37;98509.00;6069888;28;96992;-65
2023/06/27 11:03:57;;;;;;;;;9.00;9.00;;;;;27.88;57.00;98510.94;6077594;28;96414;-65
2023/06/27 11:07:03;;;;;;;;;9.00;9.00;;;;;27.50;57.47;98491.84;6078144;28;96841;-65
2023/06/27 11:10:25;;;;;;;;;6.00;6.00;;;;;27.31;59.62;98506.19;6064820;28;97700;-65
2023/06/27 11:13:30;;;;;;;;;7.50;7.00;;;;;27.24;57.89;98502.31;6066688;28;96428;-64
2023/06/27 11:16:34;;;;;;;;;5.00;4.00;;;;;27.27;56.86;98504.44;6090544;28;97122;-64
2023/06/27 11:19:39;;;;;;;;;4.00;4.00;;;;;27.14;51.10;98509.91;6067623;28;96359;-65
2023/06/27 11:22:43;;;;;;;;;5.20;4.20;;;;;26.75;49.50;98499.31;6057814;28;97094;-64
2023/06/27 11:25:48;;;;;;;;;3.80;3.20;;;;;26.61;48.61;98488.50;6090990;28;96532;-64
2023/06/27 11:28:51;;;;;;;;;4.20;4.00;;;;;26.67;52.03;98492.69;6074201;28;96582;-64
2023/06/27 11:31:56;;;;;;;;;7.40;7.00;;;;;26.81;51.32;98500.72;6088320;28;96422;-64
2023/06/27 11:34:59;;;;;;;;;7.00;7.00;;;;;26.98;52.79;98489.53;6088172;28;96395;-64
2023/06/27 11:38:07;;;;;;;;;6.00;6.00;;;;;27.07;53.84;98492.25;6070626;28;96658;-64
2023/06/27 11:41:12;;;;;;;;;5.00;4.60;;;;;27.33;52.81;98486.44;6072527;28;98088;-65
2023/06/27 11:44:17;;;;;;;;;8.25;8.00;;;;;27.04;52.71;98490.94;6101814;28;96268;-64
2023/06/27 11:47:22;;;;;;;;;6.40;6.00;;;;;27.01;53.88;98490.81;6065795;28;98777;-65
2023/06/27 11:50:25;;;;;;;;;7.00;6.00;;;;;27.20;55.46;98482.03;6062045;28;99615;-64
2023/06/27 11:53:29;;;;;;;;;7.00;6.60;;;;;27.30;55.35;98481.59;6064916;28;96841;-65
2023/06/27 11:56:34;;;;;;;;;7.00;7.00;;;;;27.62;57.14;98468.88;6047379;28;96494;-65
2023/06/27 11:59:37;;;;;;;;;7.40;7.00;;;;;27.77;56.78;98468.22;6063613;28;96281;-64
2023/06/27 12:02:40;;;;;;;;;8.00;8.00;;;;;27.73;55.98;98470.06;6048257;28;98032;-64
2023/06/27 12:05:44;;;;;;;;;7.40;7.40;;;;;27.58;56.58;98455.75;6065336;28;96927;-65
2023/06/27 12:08:48;;;;;;;;;7.20;7.20;;;;;27.50;57.38;98458.63;6048475;28;96766;-65
2023/06/27 12:11:56;;;;;;;;;9.00;8.80;;;;;27.78;56.36;98451.25;6049333;28;97025;-64
2023/06/27 12:15:10;;;;;;;;;8.00;8.00;;;;;27.70;54.37;98452.19;6066671;28;96337;-65
2023/06/27 12:18:23;;;;;;;;;8.50;8.00;;;;;27.99;53.56;98440.88;6066646;28;96484;-64
2023/06/27 12:21:27;;;;;;;;;7.00;7.00;;;;;28.41;50.82;98449.75;6066537;28;96503;-65
2023/06/27 12:24:30;;;;;;;;;9.00;7.60;;;;;28.71;47.44;98428.09;6052734;28;98617;-65
2023/06/27 12:27:38;;;;;;;;;9.00;9.00;;;;;28.81;42.70;98427.59;6085022;28;97052;-65
2023/06/27 12:30:42;;;;;;;;;8.00;8.00;;;;;28.70;45.43;98417.31;6085504;28;96377;-64
2023/06/27 12:33:46;;;;;;;;;6.00;5.00;;;;;28.86;44.91;98418.22;6069037;28;96374;-64
2023/06/27 12:36:49;;;;;;;;;5.25;5.25;;;;;28.98;45.08;98417.38;6049939;28;97484;-64
2023/06/27 12:39:52;;;;;;;;;6.00;6.00;;;;;29.18;46.36;98416.31;6066467;28;96331;-64
2023/06/27 12:42:58;;;;;;;;;8.00;7.00;;;;;29.52;42.12;98420.41;6069151;28;96416;-65
2023/06/27 12:46:02;;;;;;;;;8.60;6.60;;;;;29.59;37.25;98412.28;6067516;28;96371;-65
2023/06/27 12:49:05;;;;;;;;;5.80;4.80;;;;;29.64;37.34;98423.13;6067608;28;96279;-64
2023/06/27 12:52:09;;;;;;;;;6.00;5.00;;;;;29.26;32.45;98415.38;6050059;28;97018;-64
2023/06/27 12:55:12;;;;;;;;;4.33;4.00;;;;;28.87;30.42;98416.25;6066551;28;96957;-65
2023/06/27 12:58:17;;;;;;;;;4.60;4.60;;;;;28.69;31.02;98418.47;6066772;28;96244;-65
2023/06/27 13:01:23;;;;;;;;;4.33;3.33;;;;;28.69;30.47;98415.69;6049823;28;97104;-64
2023/06/27 13:04:29;;;;;;;;;5.00;5.00;;;;;28.78;29.92;98419.19;6069126;28;96431;-65
2023/06/27 13:07:33;;;;;;;;;5.25;5.00;;;;;28.76;31.22;98413.16;6068471;28;96277;-65
2023/06/27 13:10:37;;;;;;;;;5.60;5.60;;;;;29.02;31.89;98421.03;6068329;28;96482;-65
2023/06/27 13:13:43;;;;;;;;;3.00;3.00;;;;;28.79;30.57;98407.72;6068890;28;96564;-64
2023/06/27 13:16:46;;;;;;;;;4.00;4.00;;;;;28.77;31.61;98406.47;6069390;28;96802;-64
2023/06/27 13:19:50;;;;;;;;;4.00;4.00;;;;;28.88;32.06;98418.69;6069392;28;96262;-64
2023/06/27 13:22:53;;;;;;;;;5.00;5.00;;;;;28.98;33.19;98397.94;6069260;28;96303;-64
2023/06/27 13:25:57;;;;;;;;;3.00;3.00;;;;;29.19;31.93;98423.50;6065186;28;97083;-65
2023/06/27 13:29:04;;;;;;;;;4.00;4.00;;;;;29.00;32.25;98423.34;6066413;28;96553;-64
2023/06/27 13:32:08;;;;;;;;;2.20;2.20;;;;;28.69;31.86;98413.72;6066664;28;96875;-65
2023/06/27 13:35:12;;;;;;;;;4.40;4.00;;;;;28.31;31.80;98411.41;6066338;28;97061;-64
2023/06/27 13:38:16;;;;;;;;;3.00;3.00;;;;;28.19;33.51;98400.38;6065996;28;96764;-65
2023/06/27 13:41:20;;;;;;;;;6.40;6.40;;;;;28.16;32.63;98406.59;6067608;28;96822;-65
2023/06/27 13:44:25;;;;;;;;;5.00;5.00;;;;;28.12;34.63;98402.09;6051539;28;99457;-65
2023/06/27 13:47:28;;;;;;;;;4.40;4.40;;;;;27.98;34.80;98402.44;6069008;28;96338;-65
2023/06/27 13:50:31;;;;;;;;;6.40;6.00;;;;;27.97;36.72;98409.13;6051390;28;98903;-64
2023/06/27 13:53:35;;;;;;;;;4.80;4.80;;;;;28.02;36.23;98408.88;6068659;28;96466;-64
2023/06/27 13:56:38;;;;;;;;;6.00;6.00;;;;;28.02;36.15;98408.88;6068898;28;96457;-64
2023/06/27 13:59:43;;;;;;;;;5.40;5.00;;;;;27.97;37.13;98411.91;6067661;28;96822;-64
2023/06/27 14:02:46;;;;;;;;;6.00;6.00;;;;;27.96;37.21;98413.84;6069173;28;96325;-64
2023/06/27 14:06:08;;;;;;;;;3.50;3.50;;;;;27.97;37.72;98403.59;6051305;28;99121;-64
2023/06/27 14:09:14;;;;;;;;;4.75;4.25;;;;;28.06;37.73;98404.25;6068487;28;96127;-65
2023/06/27 14:12:19;;;;;;;;;4.20;4.00;;;;;27.88;36.72;98397.34;6068775;28;96447;-65
2023/06/27 14:15:24;;;;;;;;;5.00;4.00;;;;;27.82;36.69;98415.34;6051031;28;96676;-64